sensor_id;sensor_type;location;lat;lon;timestamp;temperature;humidity
73277;DHT22;61501;43.316;5.372;2023-07-16T00:00:27;28.40;99.90
73277;DHT22;61501;43.316;5.372;2023-07-16T00:02:52;28.40;99.90
73277;DHT22;61501;43.316;5.372;2023-07-16T00:05:18;28.30;99.90
73277;DHT22;61501;43.316;5.372;2023-07-16T00:07:44;28.30;99.90
73277;DHT22;61501;43.316;5.372;2023-07-16T00:10:09;28.30;99.90
73277;DHT22;61501;43.316;5.372;2023-07-16T00:12:35;28.40;99.90
73277;DHT22;61501;43.316;5.372;2023-07-16T00:15:01;28.50;99.90
73277;DHT22;61501;43.316;5.372;2023-07-16T00:17:26;28.50;99.90
73277;DHT22;61501;43.316;5.372;2023-07-16T00:19:52;28.30;99.90
73277;DHT22;61501;43.316;5.372;2023-07-16T00:22:17;28.20;99.90
73277;DHT22;61501;43.316;5.372;2023-07-16T00:24:43;28.30;99.90
73277;DHT22;61501;43.316;5.372;2023-07-16T00:27:09;28.30;99.90
73277;DHT22;61501;43.316;5.372;2023-07-16T00:29:34;28.40;99.90
73277;DHT22;61501;43.316;5.372;2023-07-16T00:32:00;28.30;99.90
73277;DHT22;61501;43.316;5.372;2023-07-16T00:34:25;28.30;99.90
73277;DHT22;61501;43.316;5.372;2023-07-16T00:36:51;28.30;99.20
73277;DHT22;61501;43.316;5.372;2023-07-16T00:39:17;28.00;99.90
73277;DHT22;61501;43.316;5.372;2023-07-16T00:41:42;28.00;99.50
73277;DHT22;61501;43.316;5.372;2023-07-16T00:44:08;28.10;98.20
73277;DHT22;61501;43.316;5.372;2023-07-16T00:46:34;28.20;95.80
73277;DHT22;61501;43.316;5.372;2023-07-16T00:49:00;28.10;94.20
73277;DHT22;61501;43.316;5.372;2023-07-16T00:51:26;28.00;94.60
73277;DHT22;61501;43.316;5.372;2023-07-16T00:53:52;27.70;91.00
73277;DHT22;61501;43.316;5.372;2023-07-16T00:56:19;27.70;92.60
73277;DHT22;61501;43.316;5.372;2023-07-16T00:58:45;27.70;91.10
73277;DHT22;61501;43.316;5.372;2023-07-16T01:01:10;27.80;91.20
73277;DHT22;61501;43.316;5.372;2023-07-16T01:03:36;27.90;91.10
73277;DHT22;61501;43.316;5.372;2023-07-16T01:06:16;27.90;91.60
73277;DHT22;61501;43.316;5.372;2023-07-16T01:08:49;28.00;90.40
73277;DHT22;61501;43.316;5.372;2023-07-16T01:11:15;28.00;89.40
73277;DHT22;61501;43.316;5.372;2023-07-16T01:13:41;28.00;87.60
73277;DHT22;61501;43.316;5.372;2023-07-16T01:16:21;27.90;84.90
73277;DHT22;61501;43.316;5.372;2023-07-16T01:18:48;27.80;90.00
73277;DHT22;61501;43.316;5.372;2023-07-16T01:21:14;27.90;87.10
73277;DHT22;61501;43.316;5.372;2023-07-16T01:26:26;28.00;85.00
73277;DHT22;61501;43.316;5.372;2023-07-16T01:29:07;28.00;85.40
73277;DHT22;61501;43.316;5.372;2023-07-16T01:31:33;28.00;83.80
73277;DHT22;61501;43.316;5.372;2023-07-16T01:34:00;27.90;83.50
73277;DHT22;61501;43.316;5.372;2023-07-16T01:36:28;27.90;84.90
73277;DHT22;61501;43.316;5.372;2023-07-16T01:38:55;27.80;84.00
73277;DHT22;61501;43.316;5.372;2023-07-16T01:41:20;27.90;84.30
73277;DHT22;61501;43.316;5.372;2023-07-16T01:43:46;27.80;83.40
73277;DHT22;61501;43.316;5.372;2023-07-16T01:46:12;27.80;83.60
73277;DHT22;61501;43.316;5.372;2023-07-16T01:48:38;27.70;83.50
73277;DHT22;61501;43.316;5.372;2023-07-16T01:51:04;27.80;84.00
73277;DHT22;61501;43.316;5.372;2023-07-16T01:53:30;27.70;83.50
73277;DHT22;61501;43.316;5.372;2023-07-16T01:55:57;27.70;84.00
73277;DHT22;61501;43.316;5.372;2023-07-16T01:58:23;27.60;83.50
73277;DHT22;61501;43.316;5.372;2023-07-16T02:00:53;27.60;85.50
73277;DHT22;61501;43.316;5.372;2023-07-16T02:03:19;27.60;84.80
73277;DHT22;61501;43.316;5.372;2023-07-16T02:05:44;27.50;84.30
73277;DHT22;61501;43.316;5.372;2023-07-16T02:08:10;27.50;83.90
73277;DHT22;61501;43.316;5.372;2023-07-16T02:10:36;27.60;83.90
73277;DHT22;61501;43.316;5.372;2023-07-16T02:13:01;27.50;83.10
73277;DHT22;61501;43.316;5.372;2023-07-16T02:15:27;27.60;85.20
73277;DHT22;61501;43.316;5.372;2023-07-16T02:17:52;27.40;84.00
73277;DHT22;61501;43.316;5.372;2023-07-16T02:20:18;27.50;84.90
73277;DHT22;61501;43.316;5.372;2023-07-16T02:22:44;27.40;85.10
73277;DHT22;61501;43.316;5.372;2023-07-16T02:25:10;27.40;84.30
73277;DHT22;61501;43.316;5.372;2023-07-16T02:27:35;27.40;84.90
73277;DHT22;61501;43.316;5.372;2023-07-16T02:30:01;27.40;84.90
73277;DHT22;61501;43.316;5.372;2023-07-16T02:32:27;27.40;84.00
73277;DHT22;61501;43.316;5.372;2023-07-16T02:34:52;27.40;84.10
73277;DHT22;61501;43.316;5.372;2023-07-16T02:37:18;27.40;83.40
73277;DHT22;61501;43.316;5.372;2023-07-16T02:39:45;27.20;84.50
73277;DHT22;61501;43.316;5.372;2023-07-16T02:42:11;27.10;84.90
73277;DHT22;61501;43.316;5.372;2023-07-16T02:44:37;27.10;85.30
73277;DHT22;61501;43.316;5.372;2023-07-16T02:47:07;27.10;85.50
73277;DHT22;61501;43.316;5.372;2023-07-16T02:49:33;27.10;84.70
73277;DHT22;61501;43.316;5.372;2023-07-16T02:51:58;27.10;84.40
73277;DHT22;61501;43.316;5.372;2023-07-16T02:54:24;27.10;84.70
73277;DHT22;61501;43.316;5.372;2023-07-16T02:56:50;27.10;85.90
73277;DHT22;61501;43.316;5.372;2023-07-16T02:59:15;27.10;85.80
73277;DHT22;61501;43.316;5.372;2023-07-16T03:01:41;27.20;85.50
73277;DHT22;61501;43.316;5.372;2023-07-16T03:04:07;27.10;84.60
73277;DHT22;61501;43.316;5.372;2023-07-16T03:06:32;27.00;85.60
73277;DHT22;61501;43.316;5.372;2023-07-16T03:08:58;27.00;86.20
73277;DHT22;61501;43.316;5.372;2023-07-16T03:11:24;27.00;86.40
73277;DHT22;61501;43.316;5.372;2023-07-16T03:13:50;27.00;85.80
73277;DHT22;61501;43.316;5.372;2023-07-16T03:16:15;27.00;87.40
73277;DHT22;61501;43.316;5.372;2023-07-16T03:18:41;27.00;86.10
73277;DHT22;61501;43.316;5.372;2023-07-16T03:21:06;27.00;86.30
73277;DHT22;61501;43.316;5.372;2023-07-16T03:23:32;27.00;86.90
73277;DHT22;61501;43.316;5.372;2023-07-16T03:25:58;27.00;88.00
73277;DHT22;61501;43.316;5.372;2023-07-16T03:28:24;27.00;86.90
73277;DHT22;61501;43.316;5.372;2023-07-16T03:30:50;27.00;87.30
73277;DHT22;61501;43.316;5.372;2023-07-16T03:33:16;26.80;87.90
73277;DHT22;61501;43.316;5.372;2023-07-16T03:35:43;26.80;88.40
73277;DHT22;61501;43.316;5.372;2023-07-16T03:38:10;26.80;89.30
73277;DHT22;61501;43.316;5.372;2023-07-16T03:40:36;26.90;88.10
73277;DHT22;61501;43.316;5.372;2023-07-16T03:43:02;26.80;88.40
73277;DHT22;61501;43.316;5.372;2023-07-16T03:45:27;26.70;90.00
73277;DHT22;61501;43.316;5.372;2023-07-16T03:47:53;26.80;89.90
73277;DHT22;61501;43.316;5.372;2023-07-16T03:50:19;26.90;89.40
73277;DHT22;61501;43.316;5.372;2023-07-16T03:52:45;26.80;90.60
73277;DHT22;61501;43.316;5.372;2023-07-16T03:55:11;26.80;89.90
73277;DHT22;61501;43.316;5.372;2023-07-16T03:57:36;26.60;90.10
73277;DHT22;61501;43.316;5.372;2023-07-16T04:00:03;26.50;90.80
73277;DHT22;61501;43.316;5.372;2023-07-16T04:02:31;26.30;91.40
73277;DHT22;61501;43.316;5.372;2023-07-16T04:04:57;26.20;92.50
73277;DHT22;61501;43.316;5.372;2023-07-16T04:07:22;26.20;92.80
73277;DHT22;61501;43.316;5.372;2023-07-16T04:09:48;26.40;93.60
73277;DHT22;61501;43.316;5.372;2023-07-16T04:12:14;26.50;92.90
73277;DHT22;61501;43.316;5.372;2023-07-16T04:14:40;26.40;92.70
73277;DHT22;61501;43.316;5.372;2023-07-16T04:17:05;26.60;93.50
73277;DHT22;61501;43.316;5.372;2023-07-16T04:19:31;26.70;93.40
73277;DHT22;61501;43.316;5.372;2023-07-16T04:21:57;26.70;93.10
73277;DHT22;61501;43.316;5.372;2023-07-16T04:24:22;26.70;92.60
73277;DHT22;61501;43.316;5.372;2023-07-16T04:26:49;26.70;93.10
73277;DHT22;61501;43.316;5.372;2023-07-16T04:29:15;26.70;92.40
73277;DHT22;61501;43.316;5.372;2023-07-16T04:31:41;26.70;92.10
73277;DHT22;61501;43.316;5.372;2023-07-16T04:34:07;26.70;93.00
73277;DHT22;61501;43.316;5.372;2023-07-16T04:36:32;26.70;92.60
73277;DHT22;61501;43.316;5.372;2023-07-16T04:38:58;26.70;93.20
73277;DHT22;61501;43.316;5.372;2023-07-16T04:41:23;26.60;95.00
73277;DHT22;61501;43.316;5.372;2023-07-16T04:43:49;26.70;95.30
73277;DHT22;61501;43.316;5.372;2023-07-16T04:46:15;26.80;93.70
73277;DHT22;61501;43.316;5.372;2023-07-16T04:48:41;26.90;94.30
73277;DHT22;61501;43.316;5.372;2023-07-16T04:51:07;26.90;94.50
73277;DHT22;61501;43.316;5.372;2023-07-16T04:53:33;27.00;94.10
73277;DHT22;61501;43.316;5.372;2023-07-16T04:55:58;27.00;93.90
73277;DHT22;61501;43.316;5.372;2023-07-16T04:58:24;27.00;93.50
73277;DHT22;61501;43.316;5.372;2023-07-16T05:00:50;27.00;94.00
73277;DHT22;61501;43.316;5.372;2023-07-16T05:03:15;27.10;93.80
73277;DHT22;61501;43.316;5.372;2023-07-16T05:05:41;27.10;93.80
73277;DHT22;61501;43.316;5.372;2023-07-16T05:08:06;27.20;94.10
73277;DHT22;61501;43.316;5.372;2023-07-16T05:10:33;27.20;94.40
73277;DHT22;61501;43.316;5.372;2023-07-16T05:12:59;27.30;93.60
73277;DHT22;61501;43.316;5.372;2023-07-16T05:15:25;27.10;93.90
73277;DHT22;61501;43.316;5.372;2023-07-16T05:17:50;27.00;95.30
73277;DHT22;61501;43.316;5.372;2023-07-16T05:20:16;27.10;95.80
73277;DHT22;61501;43.316;5.372;2023-07-16T05:22:42;27.20;95.30
73277;DHT22;61501;43.316;5.372;2023-07-16T05:25:08;27.30;94.40
73277;DHT22;61501;43.316;5.372;2023-07-16T05:27:33;27.20;93.90
73277;DHT22;61501;43.316;5.372;2023-07-16T05:30:01;27.10;95.00
73277;DHT22;61501;43.316;5.372;2023-07-16T05:32:26;27.20;94.60
73277;DHT22;61501;43.316;5.372;2023-07-16T05:34:52;27.20;95.00
73277;DHT22;61501;43.316;5.372;2023-07-16T05:37:18;27.30;94.80
73277;DHT22;61501;43.316;5.372;2023-07-16T05:39:43;27.20;96.10
73277;DHT22;61501;43.316;5.372;2023-07-16T05:42:09;27.20;97.30
73277;DHT22;61501;43.316;5.372;2023-07-16T05:44:35;27.30;96.80
73277;DHT22;61501;43.316;5.372;2023-07-16T05:47:01;27.30;97.30
73277;DHT22;61501;43.316;5.372;2023-07-16T05:49:26;27.30;97.60
73277;DHT22;61501;43.316;5.372;2023-07-16T05:51:52;27.40;96.90
73277;DHT22;61501;43.316;5.372;2023-07-16T05:54:19;27.30;97.60
73277;DHT22;61501;43.316;5.372;2023-07-16T05:56:45;27.40;99.20
73277;DHT22;61501;43.316;5.372;2023-07-16T05:59:11;27.40;99.30
73277;DHT22;61501;43.316;5.372;2023-07-16T06:01:36;27.60;99.00
73277;DHT22;61501;43.316;5.372;2023-07-16T06:04:02;27.50;98.90
73277;DHT22;61501;43.316;5.372;2023-07-16T06:06:29;27.60;99.90
73277;DHT22;61501;43.316;5.372;2023-07-16T06:08:55;27.60;99.90
73277;DHT22;61501;43.316;5.372;2023-07-16T06:11:21;27.70;99.90
73277;DHT22;61501;43.316;5.372;2023-07-16T06:13:46;27.90;99.20
73277;DHT22;61501;43.316;5.372;2023-07-16T06:16:12;27.90;99.90
73277;DHT22;61501;43.316;5.372;2023-07-16T06:18:38;27.80;99.90
73277;DHT22;61501;43.316;5.372;2023-07-16T06:21:03;27.80;99.90
73277;DHT22;61501;43.316;5.372;2023-07-16T06:23:29;27.80;99.90
73277;DHT22;61501;43.316;5.372;2023-07-16T06:25:55;27.70;99.90
73277;DHT22;61501;43.316;5.372;2023-07-16T06:28:21;27.60;99.90
73277;DHT22;61501;43.316;5.372;2023-07-16T06:30:47;27.60;99.90
73277;DHT22;61501;43.316;5.372;2023-07-16T06:33:13;27.50;99.90
73277;DHT22;61501;43.316;5.372;2023-07-16T06:35:38;27.50;99.90
73277;DHT22;61501;43.316;5.372;2023-07-16T06:38:04;27.40;99.90
73277;DHT22;61501;43.316;5.372;2023-07-16T06:40:30;27.40;99.90
73277;DHT22;61501;43.316;5.372;2023-07-16T06:42:56;27.40;99.90
73277;DHT22;61501;43.316;5.372;2023-07-16T06:45:22;27.50;99.90
73277;DHT22;61501;43.316;5.372;2023-07-16T06:47:48;27.50;99.90
73277;DHT22;61501;43.316;5.372;2023-07-16T06:50:14;27.40;99.90
73277;DHT22;61501;43.316;5.372;2023-07-16T06:52:39;27.50;99.90
73277;DHT22;61501;43.316;5.372;2023-07-16T06:55:05;27.40;99.90
73277;DHT22;61501;43.316;5.372;2023-07-16T06:57:31;27.40;99.90
73277;DHT22;61501;43.316;5.372;2023-07-16T06:59:57;27.40;99.90
73277;DHT22;61501;43.316;5.372;2023-07-16T07:02:23;27.40;99.90
73277;DHT22;61501;43.316;5.372;2023-07-16T07:04:48;27.40;99.90
73277;DHT22;61501;43.316;5.372;2023-07-16T07:07:14;27.40;99.90
73277;DHT22;61501;43.316;5.372;2023-07-16T07:09:39;27.40;99.90
73277;DHT22;61501;43.316;5.372;2023-07-16T07:12:05;27.40;99.90
73277;DHT22;61501;43.316;5.372;2023-07-16T07:14:33;27.50;99.90
73277;DHT22;61501;43.316;5.372;2023-07-16T07:16:58;27.70;99.90
73277;DHT22;61501;43.316;5.372;2023-07-16T07:19:24;27.80;99.90
73277;DHT22;61501;43.316;5.372;2023-07-16T07:21:50;27.80;99.90
73277;DHT22;61501;43.316;5.372;2023-07-16T07:24:15;27.80;99.90
73277;DHT22;61501;43.316;5.372;2023-07-16T07:26:41;27.80;99.90
73277;DHT22;61501;43.316;5.372;2023-07-16T07:29:07;27.90;99.90
73277;DHT22;61501;43.316;5.372;2023-07-16T07:31:33;27.90;99.90
73277;DHT22;61501;43.316;5.372;2023-07-16T07:33:58;27.90;99.90
73277;DHT22;61501;43.316;5.372;2023-07-16T07:36:25;28.10;99.90
73277;DHT22;61501;43.316;5.372;2023-07-16T07:38:50;28.10;99.90
73277;DHT22;61501;43.316;5.372;2023-07-16T07:41:16;28.10;99.90
73277;DHT22;61501;43.316;5.372;2023-07-16T07:43:42;28.10;99.90
73277;DHT22;61501;43.316;5.372;2023-07-16T07:46:08;28.20;99.90
73277;DHT22;61501;43.316;5.372;2023-07-16T07:48:33;28.20;99.90
73277;DHT22;61501;43.316;5.372;2023-07-16T07:50:59;28.20;99.90
73277;DHT22;61501;43.316;5.372;2023-07-16T07:53:25;28.30;99.90
73277;DHT22;61501;43.316;5.372;2023-07-16T07:55:50;28.30;99.90
73277;DHT22;61501;43.316;5.372;2023-07-16T07:58:16;28.40;99.90
73277;DHT22;61501;43.316;5.372;2023-07-16T08:00:42;28.50;99.90
73277;DHT22;61501;43.316;5.372;2023-07-16T08:03:07;28.70;99.90
73277;DHT22;61501;43.316;5.372;2023-07-16T08:05:35;28.80;99.90
73277;DHT22;61501;43.316;5.372;2023-07-16T08:08:01;28.10;99.90
73277;DHT22;61501;43.316;5.372;2023-07-16T08:10:26;28.00;99.90
73277;DHT22;61501;43.316;5.372;2023-07-16T08:12:52;28.00;99.90
73277;DHT22;61501;43.316;5.372;2023-07-16T08:15:18;27.80;99.90
73277;DHT22;61501;43.316;5.372;2023-07-16T08:17:44;27.60;99.90
73277;DHT22;61501;43.316;5.372;2023-07-16T08:20:11;27.70;99.90
73277;DHT22;61501;43.316;5.372;2023-07-16T08:22:37;27.90;99.90
73277;DHT22;61501;43.316;5.372;2023-07-16T08:25:03;28.00;99.90
73277;DHT22;61501;43.316;5.372;2023-07-16T08:27:30;28.00;99.90
73277;DHT22;61501;43.316;5.372;2023-07-16T08:29:55;28.00;99.90
73277;DHT22;61501;43.316;5.372;2023-07-16T08:32:21;27.90;99.90
73277;DHT22;61501;43.316;5.372;2023-07-16T08:34:47;27.90;99.90
73277;DHT22;61501;43.316;5.372;2023-07-16T08:37:13;27.80;99.90
73277;DHT22;61501;43.316;5.372;2023-07-16T08:39:39;27.90;99.90
73277;DHT22;61501;43.316;5.372;2023-07-16T08:42:05;28.00;99.90
73277;DHT22;61501;43.316;5.372;2023-07-16T08:44:31;27.90;99.90
73277;DHT22;61501;43.316;5.372;2023-07-16T08:46:58;28.00;99.90
73277;DHT22;61501;43.316;5.372;2023-07-16T08:49:25;28.10;99.90
73277;DHT22;61501;43.316;5.372;2023-07-16T08:51:52;28.10;99.90
73277;DHT22;61501;43.316;5.372;2023-07-16T08:54:19;28.10;99.90
73277;DHT22;61501;43.316;5.372;2023-07-16T08:56:46;28.30;99.90
73277;DHT22;61501;43.316;5.372;2023-07-16T08:59:14;28.40;99.90
73277;DHT22;61501;43.316;5.372;2023-07-16T09:01:40;28.20;99.90
73277;DHT22;61501;43.316;5.372;2023-07-16T09:04:06;28.20;99.90
73277;DHT22;61501;43.316;5.372;2023-07-16T09:06:32;28.20;99.90
73277;DHT22;61501;43.316;5.372;2023-07-16T09:08:58;28.20;99.90
73277;DHT22;61501;43.316;5.372;2023-07-16T09:11:23;28.10;99.90
73277;DHT22;61501;43.316;5.372;2023-07-16T09:13:49;28.20;99.90
73277;DHT22;61501;43.316;5.372;2023-07-16T09:16:17;28.30;99.90
73277;DHT22;61501;43.316;5.372;2023-07-16T09:18:43;28.10;99.90
73277;DHT22;61501;43.316;5.372;2023-07-16T09:21:09;27.80;99.90
73277;DHT22;61501;43.316;5.372;2023-07-16T09:23:35;27.90;99.90
73277;DHT22;61501;43.316;5.372;2023-07-16T09:26:00;27.70;99.90
73277;DHT22;61501;43.316;5.372;2023-07-16T09:28:26;27.80;99.90
73277;DHT22;61501;43.316;5.372;2023-07-16T09:30:52;28.00;99.90
73277;DHT22;61501;43.316;5.372;2023-07-16T09:33:20;28.10;99.90
73277;DHT22;61501;43.316;5.372;2023-07-16T09:35:50;28.10;99.90
73277;DHT22;61501;43.316;5.372;2023-07-16T09:38:16;28.30;99.90
73277;DHT22;61501;43.316;5.372;2023-07-16T09:40:43;28.10;99.90
73277;DHT22;61501;43.316;5.372;2023-07-16T09:43:09;27.90;99.90
73277;DHT22;61501;43.316;5.372;2023-07-16T09:45:35;28.00;99.90
73277;DHT22;61501;43.316;5.372;2023-07-16T09:48:02;28.10;99.90
73277;DHT22;61501;43.316;5.372;2023-07-16T09:50:28;28.20;99.90
73277;DHT22;61501;43.316;5.372;2023-07-16T09:52:56;28.10;99.90
73277;DHT22;61501;43.316;5.372;2023-07-16T09:55:23;28.00;99.90
73277;DHT22;61501;43.316;5.372;2023-07-16T09:57:55;28.20;99.90
73277;DHT22;61501;43.316;5.372;2023-07-16T10:00:23;28.20;99.90
73277;DHT22;61501;43.316;5.372;2023-07-16T10:02:50;27.90;99.90
73277;DHT22;61501;43.316;5.372;2023-07-16T10:05:28;28.00;99.90
73277;DHT22;61501;43.316;5.372;2023-07-16T10:07:57;28.10;99.90
73277;DHT22;61501;43.316;5.372;2023-07-16T10:13:07;27.80;99.90
73277;DHT22;61501;43.316;5.372;2023-07-16T10:15:34;27.80;99.90
73277;DHT22;61501;43.316;5.372;2023-07-16T10:17:59;27.80;99.90
73277;DHT22;61501;43.316;5.372;2023-07-16T10:20:34;27.60;99.90
73277;DHT22;61501;43.316;5.372;2023-07-16T10:23:13;27.40;99.90
73277;DHT22;61501;43.316;5.372;2023-07-16T10:25:40;27.60;99.90
73277;DHT22;61501;43.316;5.372;2023-07-16T10:28:05;27.80;99.90
73277;DHT22;61501;43.316;5.372;2023-07-16T10:30:32;27.90;99.90
73277;DHT22;61501;43.316;5.372;2023-07-16T10:32:58;28.00;99.90
73277;DHT22;61501;43.316;5.372;2023-07-16T10:35:25;28.10;99.90
73277;DHT22;61501;43.316;5.372;2023-07-16T10:37:51;28.10;99.90
73277;DHT22;61501;43.316;5.372;2023-07-16T10:40:17;27.90;99.90
73277;DHT22;61501;43.316;5.372;2023-07-16T10:42:43;27.80;99.90
73277;DHT22;61501;43.316;5.372;2023-07-16T10:45:10;27.70;99.90
73277;DHT22;61501;43.316;5.372;2023-07-16T10:47:37;27.80;99.90
73277;DHT22;61501;43.316;5.372;2023-07-16T10:50:05;27.90;99.90
73277;DHT22;61501;43.316;5.372;2023-07-16T10:52:31;27.80;99.90
73277;DHT22;61501;43.316;5.372;2023-07-16T10:54:57;27.80;99.90
73277;DHT22;61501;43.316;5.372;2023-07-16T10:57:27;27.90;99.90
73277;DHT22;61501;43.316;5.372;2023-07-16T10:59:55;28.00;99.90
73277;DHT22;61501;43.316;5.372;2023-07-16T11:02:22;27.80;99.90
73277;DHT22;61501;43.316;5.372;2023-07-16T11:04:49;27.80;99.90
73277;DHT22;61501;43.316;5.372;2023-07-16T11:07:16;27.80;99.90
73277;DHT22;61501;43.316;5.372;2023-07-16T11:12:09;27.50;99.90
73277;DHT22;61501;43.316;5.372;2023-07-16T11:14:35;27.70;99.90
73277;DHT22;61501;43.316;5.372;2023-07-16T11:17:08;27.80;99.90
73277;DHT22;61501;43.316;5.372;2023-07-16T11:19:35;27.80;99.90
73277;DHT22;61501;43.316;5.372;2023-07-16T11:22:02;28.00;99.90
73277;DHT22;61501;43.316;5.372;2023-07-16T11:24:28;28.10;99.90
73277;DHT22;61501;43.316;5.372;2023-07-16T11:26:55;27.90;99.90
73277;DHT22;61501;43.316;5.372;2023-07-16T11:29:23;27.90;99.90
73277;DHT22;61501;43.316;5.372;2023-07-16T11:31:51;27.80;99.90
73277;DHT22;61501;43.316;5.372;2023-07-16T11:34:17;27.80;99.90
73277;DHT22;61501;43.316;5.372;2023-07-16T11:36:44;28.00;99.90
73277;DHT22;61501;43.316;5.372;2023-07-16T11:39:13;28.00;99.90
73277;DHT22;61501;43.316;5.372;2023-07-16T11:41:39;27.90;99.90
73277;DHT22;61501;43.316;5.372;2023-07-16T11:44:07;27.70;99.90
73277;DHT22;61501;43.316;5.372;2023-07-16T11:46:33;27.70;99.90
73277;DHT22;61501;43.316;5.372;2023-07-16T11:49:00;27.60;99.90
73277;DHT22;61501;43.316;5.372;2023-07-16T11:51:25;27.50;99.90
73277;DHT22;61501;43.316;5.372;2023-07-16T11:53:52;27.50;99.90
73277;DHT22;61501;43.316;5.372;2023-07-16T11:56:17;27.70;99.90
73277;DHT22;61501;43.316;5.372;2023-07-16T11:58:43;27.90;99.90
73277;DHT22;61501;43.316;5.372;2023-07-16T12:01:09;27.90;99.90
73277;DHT22;61501;43.316;5.372;2023-07-16T12:03:35;27.80;99.90
73277;DHT22;61501;43.316;5.372;2023-07-16T12:06:01;28.00;99.90
73277;DHT22;61501;43.316;5.372;2023-07-16T12:08:26;28.10;99.90
73277;DHT22;61501;43.316;5.372;2023-07-16T12:10:52;28.30;99.90
73277;DHT22;61501;43.316;5.372;2023-07-16T12:13:18;28.30;99.90
73277;DHT22;61501;43.316;5.372;2023-07-16T12:15:44;28.90;99.90
73277;DHT22;61501;43.316;5.372;2023-07-16T12:18:09;29.60;99.90
73277;DHT22;61501;43.316;5.372;2023-07-16T12:20:35;29.90;99.90
73277;DHT22;61501;43.316;5.372;2023-07-16T12:23:05;30.30;99.90
73277;DHT22;61501;43.316;5.372;2023-07-16T12:25:31;30.90;99.90
73277;DHT22;61501;43.316;5.372;2023-07-16T12:27:57;31.20;99.90
73277;DHT22;61501;43.316;5.372;2023-07-16T12:30:24;31.70;99.90
73277;DHT22;61501;43.316;5.372;2023-07-16T12:32:50;31.40;99.90
73277;DHT22;61501;43.316;5.372;2023-07-16T12:35:16;31.50;99.90
73277;DHT22;61501;43.316;5.372;2023-07-16T12:37:41;31.90;99.90
73277;DHT22;61501;43.316;5.372;2023-07-16T12:40:07;31.80;99.90
73277;DHT22;61501;43.316;5.372;2023-07-16T12:42:33;31.10;99.90
73277;DHT22;61501;43.316;5.372;2023-07-16T12:45:00;31.40;99.90
73277;DHT22;61501;43.316;5.372;2023-07-16T12:47:26;31.40;99.90
73277;DHT22;61501;43.316;5.372;2023-07-16T12:49:51;31.90;99.90
73277;DHT22;61501;43.316;5.372;2023-07-16T12:52:17;32.00;99.90
73277;DHT22;61501;43.316;5.372;2023-07-16T12:54:43;31.80;99.90
73277;DHT22;61501;43.316;5.372;2023-07-16T12:57:08;31.70;99.90
73277;DHT22;61501;43.316;5.372;2023-07-16T12:59:34;31.80;99.90
73277;DHT22;61501;43.316;5.372;2023-07-16T13:01:59;31.50;99.90
73277;DHT22;61501;43.316;5.372;2023-07-16T13:04:25;31.80;99.90
73277;DHT22;61501;43.316;5.372;2023-07-16T13:06:51;31.90;99.90
73277;DHT22;61501;43.316;5.372;2023-07-16T13:09:16;31.90;99.90
73277;DHT22;61501;43.316;5.372;2023-07-16T13:11:43;31.60;99.90
73277;DHT22;61501;43.316;5.372;2023-07-16T13:14:08;31.60;99.90
73277;DHT22;61501;43.316;5.372;2023-07-16T13:16:34;31.70;99.90
73277;DHT22;61501;43.316;5.372;2023-07-16T13:19:00;31.50;99.90
73277;DHT22;61501;43.316;5.372;2023-07-16T13:21:26;31.00;99.90
73277;DHT22;61501;43.316;5.372;2023-07-16T13:23:51;31.20;99.90
73277;DHT22;61501;43.316;5.372;2023-07-16T13:26:17;30.80;99.90
73277;DHT22;61501;43.316;5.372;2023-07-16T13:28:42;31.00;99.90
73277;DHT22;61501;43.316;5.372;2023-07-16T13:31:08;30.30;99.90
73277;DHT22;61501;43.316;5.372;2023-07-16T13:33:34;30.40;99.90
73277;DHT22;61501;43.316;5.372;2023-07-16T13:36:01;30.50;99.90
73277;DHT22;61501;43.316;5.372;2023-07-16T13:38:30;30.40;99.90
73277;DHT22;61501;43.316;5.372;2023-07-16T13:40:56;30.10;99.90
73277;DHT22;61501;43.316;5.372;2023-07-16T13:43:21;30.10;99.90
73277;DHT22;61501;43.316;5.372;2023-07-16T13:45:47;30.30;99.90
73277;DHT22;61501;43.316;5.372;2023-07-16T13:48:12;30.10;99.90
73277;DHT22;61501;43.316;5.372;2023-07-16T13:50:38;30.40;99.90
73277;DHT22;61501;43.316;5.372;2023-07-16T13:53:04;30.60;99.90
73277;DHT22;61501;43.316;5.372;2023-07-16T13:55:29;30.60;99.90
73277;DHT22;61501;43.316;5.372;2023-07-16T13:57:55;30.60;99.90
73277;DHT22;61501;43.316;5.372;2023-07-16T14:00:22;30.70;99.90
73277;DHT22;61501;43.316;5.372;2023-07-16T14:02:47;30.60;99.90
73277;DHT22;61501;43.316;5.372;2023-07-16T14:05:13;30.40;99.90
73277;DHT22;61501;43.316;5.372;2023-07-16T14:07:39;30.70;99.90
73277;DHT22;61501;43.316;5.372;2023-07-16T14:10:05;30.00;99.90
73277;DHT22;61501;43.316;5.372;2023-07-16T14:12:31;30.20;99.90
73277;DHT22;61501;43.316;5.372;2023-07-16T14:14:56;30.10;99.90
73277;DHT22;61501;43.316;5.372;2023-07-16T14:17:22;30.50;99.90
73277;DHT22;61501;43.316;5.372;2023-07-16T14:19:49;31.00;99.90
73277;DHT22;61501;43.316;5.372;2023-07-16T14:22:14;31.10;99.90
73277;DHT22;61501;43.316;5.372;2023-07-16T14:24:41;31.30;99.90
73277;DHT22;61501;43.316;5.372;2023-07-16T14:27:07;31.50;99.90
73277;DHT22;61501;43.316;5.372;2023-07-16T14:29:36;31.30;99.90
73277;DHT22;61501;43.316;5.372;2023-07-16T14:32:02;31.00;99.90
73277;DHT22;61501;43.316;5.372;2023-07-16T14:34:28;31.00;99.90
73277;DHT22;61501;43.316;5.372;2023-07-16T14:36:54;31.10;99.90
73277;DHT22;61501;43.316;5.372;2023-07-16T14:39:22;31.00;99.90
73277;DHT22;61501;43.316;5.372;2023-07-16T14:41:48;31.10;99.90
73277;DHT22;61501;43.316;5.372;2023-07-16T14:44:13;31.30;99.90
73277;DHT22;61501;43.316;5.372;2023-07-16T14:46:39;31.40;99.90
73277;DHT22;61501;43.316;5.372;2023-07-16T14:49:04;31.60;99.90
73277;DHT22;61501;43.316;5.372;2023-07-16T14:51:30;31.90;99.90
73277;DHT22;61501;43.316;5.372;2023-07-16T14:53:56;31.90;99.90
73277;DHT22;61501;43.316;5.372;2023-07-16T14:56:22;31.70;99.90
73277;DHT22;61501;43.316;5.372;2023-07-16T14:58:47;31.90;99.90
73277;DHT22;61501;43.316;5.372;2023-07-16T15:01:13;31.70;99.90
73277;DHT22;61501;43.316;5.372;2023-07-16T15:03:39;31.60;99.90
73277;DHT22;61501;43.316;5.372;2023-07-16T15:06:06;31.50;99.90
73277;DHT22;61501;43.316;5.372;2023-07-16T15:08:32;31.50;99.90
73277;DHT22;61501;43.316;5.372;2023-07-16T15:10:59;31.40;99.90
73277;DHT22;61501;43.316;5.372;2023-07-16T15:13:25;31.70;99.90
73277;DHT22;61501;43.316;5.372;2023-07-16T15:15:52;31.80;99.90
73277;DHT22;61501;43.316;5.372;2023-07-16T15:18:19;31.60;99.90
73277;DHT22;61501;43.316;5.372;2023-07-16T15:20:45;31.50;99.90
73277;DHT22;61501;43.316;5.372;2023-07-16T15:23:11;31.40;99.90
73277;DHT22;61501;43.316;5.372;2023-07-16T15:25:37;31.60;99.90
73277;DHT22;61501;43.316;5.372;2023-07-16T15:28:03;31.60;99.90
73277;DHT22;61501;43.316;5.372;2023-07-16T15:30:28;31.20;99.90